Time;durP1;ratioP1;P1;durP2;ratioP2;P2;SDS_P1;SDS_P2;PMS_P1;PMS_P2;Temp;Humidity;BMP_temperature;BMP_pressure;BME280_temperature;BME280_humidity;BME280_pressure;Samples;Min_cycle;Max_cycle;Signal;HPM_P1;HPM_P2
2022/04/22 00:00:41;;;;;;;15.03;11.37;;;10.90;90.30;;;;;;5077388;28;20459;-79
2022/04/22 00:03:10;;;;;;;17.30;12.80;;;10.90;90.40;;;;;;5079145;28;20437;-79
2022/04/22 00:05:39;;;;;;;16.03;13.20;;;10.80;90.40;;;;;;5077475;28;20524;-79
2022/04/22 00:08:08;;;;;;;17.27;12.70;;;10.80;90.50;;;;;;5077720;28;20508;-79
2022/04/22 00:11:28;;;;;;;15.80;13.17;;;10.80;90.50;;;;;;5097142;28;20464;-79
2022/04/22 00:13:24;;;;;;;17.53;12.37;;;10.70;90.50;;;;;;5094313;28;20548;-79
2022/04/22 00:15:52;;;;;;;22.83;13.63;;;10.70;90.60;;;;;;5078517;28;20425;-79
2022/04/22 00:18:21;;;;;;;14.70;12.07;;;10.70;90.70;;;;;;5077581;28;20496;-79
2022/04/22 00:20:50;;;;;;;20.60;13.27;;;10.60;90.60;;;;;;5097061;28;20447;-79
2022/04/22 00:23:19;;;;;;;20.70;12.77;;;10.60;90.70;;;;;;5097939;28;20497;-79
2022/04/22 00:25:47;;;;;;;16.60;13.37;;;10.60;90.70;;;;;;5096337;28;20535;-79
2022/04/22 00:28:15;;;;;;;16.63;11.57;;;10.60;90.80;;;;;;5077711;28;20469;-79
2022/04/22 00:30:44;;;;;;;16.30;11.80;;;10.50;90.80;;;;;;5076969;28;20444;-79
2022/04/22 00:33:12;;;;;;;15.93;11.63;;;10.50;90.90;;;;;;5077725;28;21111;-79
2022/04/22 00:35:41;;;;;;;15.60;12.63;;;10.50;90.90;;;;;;5078689;28;20854;-79
2022/04/22 00:38:10;;;;;;;13.10;11.27;;;10.50;90.90;;;;;;5076587;28;20465;-79
2022/04/22 00:40:39;;;;;;;13.47;11.00;;;10.50;91.30;;;;;;5082598;28;20440;-79
2022/04/22 00:43:18;;;;;;;16.47;11.63;;;10.40;91.30;;;;;;5088421;28;20444;-79
2022/04/22 00:45:47;;;;;;;14.60;10.87;;;10.40;91.10;;;;;;5131835;27;20437;-79
2022/04/22 00:48:16;;;;;;;15.40;9.73;;;10.30;91.00;;;;;;5130924;27;20468;-79
2022/04/22 00:50:45;;;;;;;14.50;10.20;;;10.30;91.10;;;;;;5097252;28;21020;-79
2022/04/22 00:53:15;;;;;;;13.33;9.60;;;10.30;91.10;;;;;;5098801;28;20474;-79
2022/04/22 00:55:45;;;;;;;15.30;10.23;;;10.30;91.10;;;;;;5097749;28;20496;-78
2022/04/22 00:58:14;;;;;;;13.13;8.03;;;10.30;91.10;;;;;;5077439;28;20992;-79
2022/04/22 01:00:42;;;;;;;12.33;8.13;;;10.20;91.00;;;;;;5077599;28;20540;-79
2022/04/22 01:03:11;;;;;;;12.47;6.80;;;10.20;90.90;;;;;;5111639;28;21009;-79
2022/04/22 01:11:25;;;;;;;14.80;7.50;;;10.10;90.60;;;;;;5095092;28;20469;-79
2022/04/22 01:13:54;;;;;;;8.40;6.10;;;10.10;90.60;;;;;;5120390;28;20431;-79
2022/04/22 01:16:23;;;;;;;10.10;5.97;;;10.10;90.50;;;;;;5118873;28;20455;-79
2022/04/22 01:18:51;;;;;;;8.90;5.83;;;10.10;90.40;;;;;;5114440;28;20468;-79
2022/04/22 01:21:21;;;;;;;10.00;6.50;;;10.00;90.30;;;;;;5077084;28;20456;-79
2022/04/22 01:23:50;;;;;;;11.33;5.80;;;10.00;90.30;;;;;;5077581;28;20453;-79
2022/04/22 01:26:18;;;;;;;9.30;5.00;;;10.00;90.20;;;;;;5120203;27;20470;-79
2022/04/22 01:28:46;;;;;;;10.20;5.47;;;9.90;90.60;;;;;;5130475;27;20491;-79
2022/04/22 01:31:14;;;;;;;9.30;5.30;;;9.90;90.50;;;;;;5096543;28;20470;-79
2022/04/22 01:33:42;;;;;;;11.40;5.97;;;9.90;90.40;;;;;;5097081;28;20521;-79
2022/04/22 01:36:10;;;;;;;8.77;4.57;;;9.90;90.40;;;;;;5094782;28;20451;-79
2022/04/22 01:38:40;;;;;;;9.00;4.90;;;9.80;90.30;;;;;;5080384;28;20487;-78
2022/04/22 01:41:08;;;;;;;8.53;4.80;;;9.80;90.20;;;;;;5096488;28;20489;-79
2022/04/22 01:43:36;;;;;;;8.50;4.47;;;9.80;90.20;;;;;;5093651;28;20535;-79
2022/04/22 01:46:05;;;;;;;9.93;4.67;;;9.70;90.10;;;;;;5109557;28;20443;-79
2022/04/22 01:48:33;;;;;;;8.83;4.67;;;9.70;90.00;;;;;;5076643;28;20539;-79
2022/04/22 01:51:01;;;;;;;7.60;3.73;;;9.70;90.00;;;;;;5077544;28;20441;-79
2022/04/22 01:53:29;;;;;;;8.87;4.70;;;9.70;90.00;;;;;;5075561;28;20530;-79
2022/04/22 01:56:04;;;;;;;11.13;5.00;;;9.60;89.90;;;;;;5076232;28;20510;-79
2022/04/22 01:58:33;;;;;;;9.07;4.53;;;9.60;89.80;;;;;;5117904;27;20476;-79
2022/04/22 02:01:02;;;;;;;9.30;4.63;;;9.60;89.80;;;;;;5113665;28;20478;-79
2022/04/22 02:03:30;;;;;;;8.00;3.77;;;9.50;89.60;;;;;;5113853;28;20477;-79
2022/04/22 02:05:59;;;;;;;8.00;4.50;;;9.50;89.60;;;;;;5113574;28;20475;-79
2022/04/22 02:08:27;;;;;;;8.10;4.80;;;9.50;89.60;;;;;;5113749;28;20468;-79
2022/04/22 02:10:55;;;;;;;9.37;5.30;;;9.50;89.60;;;;;;5113783;28;20437;-79
2022/04/22 02:13:25;;;;;;;9.10;5.20;;;9.40;89.60;;;;;;5080326;28;20471;-78
2022/04/22 02:15:53;;;;;;;9.37;5.90;;;9.40;89.60;;;;;;5120496;27;20513;-79
2022/04/22 02:18:21;;;;;;;9.20;6.37;;;9.40;89.70;;;;;;5101018;28;20468;-79
2022/04/22 02:20:50;;;;;;;11.10;6.40;;;9.30;89.80;;;;;;5101425;28;20443;-79
2022/04/22 02:23:18;;;;;;;9.40;6.57;;;9.20;89.80;;;;;;5100023;28;20547;-79
2022/04/22 02:25:46;;;;;;;8.90;6.37;;;9.20;89.90;;;;;;5099965;28;20448;-79
2022/04/22 02:28:31;;;;;;;9.77;6.37;;;9.20;90.00;;;;;;5099579;28;20820;-79
2022/04/22 02:31:02;;;;;;;10.57;6.60;;;9.20;90.00;;;;;;5098938;28;20475;-79
2022/04/22 02:33:31;;;;;;;12.17;7.50;;;9.10;90.00;;;;;;5093803;28;20492;-79
2022/04/22 02:36:00;;;;;;;9.83;6.10;;;9.10;90.00;;;;;;5100128;28;20493;-79
2022/04/22 02:38:28;;;;;;;13.87;7.90;;;9.00;90.00;;;;;;5100274;28;20578;-79
2022/04/22 02:46:31;;;;;;;11.30;7.20;;;8.80;90.10;;;;;;5080756;28;20993;-79
2022/04/22 02:49:00;;;;;;;13.60;7.33;;;8.70;90.10;;;;;;5114192;28;20548;-79
2022/04/22 02:51:29;;;;;;;11.33;7.87;;;8.70;90.20;;;;;;5115422;27;20463;-79
2022/04/22 02:53:57;;;;;;;11.30;6.90;;;8.60;90.20;;;;;;5087137;28;20503;-79
2022/04/22 02:56:26;;;;;;;10.30;7.63;;;8.60;90.20;;;;;;5094630;28;20967;-79
2022/04/22 02:58:56;;;;;;;11.50;7.80;;;8.50;90.20;;;;;;5080014;28;20463;-79
2022/04/22 03:01:24;;;;;;;10.20;7.40;;;8.50;90.30;;;;;;5114482;28;20498;-79
2022/04/22 03:03:54;;;;;;;10.80;8.10;;;8.40;90.30;;;;;;5113246;28;20453;-79
2022/04/22 03:06:24;;;;;;;10.23;8.23;;;8.40;90.40;;;;;;5112348;28;20500;-79
2022/04/22 03:08:53;;;;;;;10.57;8.77;;;8.30;90.40;;;;;;5080366;28;20801;-79
2022/04/22 03:11:21;;;;;;;9.53;7.63;;;8.30;90.50;;;;;;5113748;27;20488;-79
2022/04/22 03:13:50;;;;;;;12.50;8.63;;;8.20;90.50;;;;;;5080708;28;20490;-79
2022/04/22 03:16:19;;;;;;;12.03;9.23;;;8.20;90.50;;;;;;5080933;28;20464;-79
2022/04/22 03:18:48;;;;;;;12.43;9.20;;;8.20;90.60;;;;;;5079423;28;20512;-79
2022/04/22 03:21:17;;;;;;;13.90;8.43;;;8.10;90.60;;;;;;5079325;28;20506;-79
2022/04/22 03:23:46;;;;;;;13.17;9.33;;;8.10;90.70;;;;;;5078552;28;20456;-79
2022/04/22 03:26:14;;;;;;;13.77;9.80;;;8.10;90.70;;;;;;5083353;28;20448;-79
2022/04/22 03:28:42;;;;;;;13.60;8.80;;;8.00;90.70;;;;;;5100060;28;20468;-79
2022/04/22 03:31:10;;;;;;;11.97;8.77;;;8.00;90.80;;;;;;5097790;28;20440;-79
2022/04/22 03:33:39;;;;;;;13.90;12.40;;;8.00;90.80;;;;;;5098095;28;20475;-79
2022/04/22 03:36:07;;;;;;;12.30;8.53;;;7.90;90.80;;;;;;5079081;28;20451;-79
2022/04/22 03:38:37;;;;;;;11.83;9.80;;;7.90;90.80;;;;;;5112887;28;20530;-79
2022/04/22 03:41:05;;;;;;;13.80;10.57;;;7.80;90.80;;;;;;5078862;28;20433;-79
2022/04/22 03:43:34;;;;;;;14.37;10.57;;;7.90;90.90;;;;;;5079400;28;20965;-79
2022/04/22 03:46:02;;;;;;;13.03;10.00;;;7.80;91.00;;;;;;5097881;28;20479;-79
2022/04/22 03:48:30;;;;;;;16.37;10.60;;;7.80;91.00;;;;;;5099022;28;20475;-79
2022/04/22 03:50:58;;;;;;;12.00;9.13;;;7.70;91.00;;;;;;5099119;28;20954;-79
2022/04/22 03:53:26;;;;;;;13.57;10.07;;;7.70;91.10;;;;;;5099582;28;20472;-79
2022/04/22 03:58:10;;;;;;;13.20;10.27;;;7.70;91.10;;;;;;5098769;28;20497;-79
2022/04/22 03:58:43;;;;;;;13.80;10.20;;;7.60;91.10;;;;;;5079098;28;20556;-79
2022/04/22 04:01:11;;;;;;;14.17;9.73;;;7.60;91.20;;;;;;5081032;28;20509;-79
2022/04/22 04:03:40;;;;;;;13.87;9.80;;;7.60;91.20;;;;;;5078743;28;20936;-79
2022/04/22 04:06:08;;;;;;;13.60;10.33;;;7.50;91.30;;;;;;5080058;28;20448;-79
2022/04/22 04:08:36;;;;;;;13.93;10.80;;;7.50;91.40;;;;;;5078798;28;20465;-79
2022/04/22 04:16:39;;;;;;;11.97;10.13;;;7.40;91.50;;;;;;5079963;28;20496;-79
2022/04/22 04:24:38;;;;;;;15.87;10.43;;;7.40;91.60;;;;;;5098065;28;20867;-79
2022/04/22 04:27:08;;;;;;;14.73;10.87;;;7.40;91.70;;;;;;5121434;27;20470;-79
2022/04/22 04:29:36;;;;;;;14.73;10.67;;;7.30;91.70;;;;;;5078353;28;20457;-79
2022/04/22 04:32:06;;;;;;;12.90;10.20;;;7.30;92.00;;;;;;5079268;28;20455;-79
2022/04/22 04:34:34;;;;;;;14.60;11.50;;;7.30;91.80;;;;;;5081449;28;20499;-79
2022/04/22 04:37:06;;;;;;;14.43;10.73;;;7.30;91.90;;;;;;5097463;28;20899;-79
2022/04/22 04:39:34;;;;;;;14.70;10.03;;;7.30;91.90;;;;;;5077985;28;20536;-79
2022/04/22 04:42:03;;;;;;;12.37;10.13;;;7.30;92.00;;;;;;5077791;28;20506;-79
2022/04/22 04:44:33;;;;;;;15.90;10.67;;;7.30;92.00;;;;;;5078161;28;20440;-79
2022/04/22 04:47:01;;;;;;;14.07;11.43;;;7.30;92.30;;;;;;5078969;28;20960;-79
2022/04/22 04:49:35;;;;;;;16.63;11.17;;;7.30;92.10;;;;;;5081882;28;20989;-79
2022/04/22 04:52:03;;;;;;;14.90;10.23;;;7.30;92.10;;;;;;5097799;28;20964;-79
2022/04/22 04:54:32;;;;;;;12.77;10.20;;;7.30;92.20;;;;;;5091714;28;20535;-79
2022/04/22 04:57:00;;;;;;;13.97;11.00;;;7.20;92.20;;;;;;5080833;28;20486;-79
2022/04/22 04:59:28;;;;;;;14.60;9.87;;;7.20;92.20;;;;;;5076642;28;20476;-79
2022/04/22 05:01:58;;;;;;;14.30;11.30;;;7.20;92.30;;;;;;5114662;27;20967;-79
2022/04/22 05:04:26;;;;;;;12.77;9.50;;;7.20;92.40;;;;;;5097452;28;20445;-79
2022/04/22 05:06:54;;;;;;;13.50;10.13;;;7.20;92.40;;;;;;5097894;28;20558;-79
2022/04/22 05:09:23;;;;;;;13.90;10.47;;;7.10;92.40;;;;;;5095116;28;20497;-79
2022/04/22 05:11:51;;;;;;;13.77;10.47;;;7.20;92.50;;;;;;5076514;28;20474;-79
2022/04/22 05:14:19;;;;;;;14.83;10.67;;;7.20;92.60;;;;;;5077227;28;20475;-79
2022/04/22 05:16:47;;;;;;;15.77;11.63;;;7.20;92.60;;;;;;5077371;28;20477;-79
2022/04/22 05:19:18;;;;;;;13.90;11.40;;;7.20;92.70;;;;;;5130399;27;20474;-79
2022/04/22 05:21:46;;;;;;;13.53;10.33;;;7.20;92.70;;;;;;5082611;28;20901;-79
2022/04/22 05:24:14;;;;;;;13.47;11.57;;;7.20;92.80;;;;;;5076626;28;20453;-79
2022/04/22 05:26:43;;;;;;;15.50;10.50;;;7.20;92.80;;;;;;5097210;28;20440;-79
2022/04/22 05:32:36;;;;;;;15.37;10.60;;;7.20;92.90;;;;;;5095919;28;20475;-79
2022/04/22 05:34:46;;;;;;;14.50;12.30;;;7.20;92.90;;;;;;5096417;28;20498;-80
2022/04/22 05:37:17;;;;;;;16.13;11.57;;;7.20;93.00;;;;;;5095538;28;20524;-79
2022/04/22 05:39:45;;;;;;;15.63;10.70;;;7.20;93.10;;;;;;5096317;28;20470;-79
2022/04/22 05:42:14;;;;;;;13.70;10.10;;;7.30;93.10;;;;;;5090515;28;20463;-78
2022/04/22 05:44:42;;;;;;;13.30;9.93;;;7.30;93.20;;;;;;5094799;28;20454;-79
2022/04/22 05:47:10;;;;;;;15.97;11.67;;;7.30;93.30;;;;;;5095520;28;20534;-79
2022/04/22 05:49:39;;;;;;;15.03;11.67;;;7.30;93.30;;;;;;5095346;28;20477;-79
2022/04/22 05:52:08;;;;;;;13.60;9.90;;;7.40;93.50;;;;;;5096262;28;20471;-79
2022/04/22 05:54:38;;;;;;;14.73;10.40;;;7.40;93.50;;;;;;5082050;28;20512;-79
2022/04/22 05:57:06;;;;;;;14.03;9.60;;;7.50;93.60;;;;;;5086723;28;20870;-79
2022/04/22 05:59:35;;;;;;;17.03;10.00;;;7.60;93.70;;;;;;5129644;28;21015;-78
2022/04/22 06:02:03;;;;;;;12.97;9.10;;;7.70;93.80;;;;;;5097750;28;20432;-79
2022/04/22 06:04:32;;;;;;;12.17;8.73;;;7.90;93.90;;;;;;5095174;28;20440;-79
2022/04/22 06:07:01;;;;;;;14.80;8.90;;;8.10;94.00;;;;;;5112608;28;21027;-78
2022/04/22 06:12:17;;;;;;;11.60;8.03;;;8.50;94.10;;;;;;5090856;28;20448;-79
2022/04/22 06:14:46;;;;;;;12.50;7.97;;;8.80;94.20;;;;;;5097522;28;20460;-79
2022/04/22 06:17:15;;;;;;;12.80;7.70;;;9.10;94.50;;;;;;5097385;28;20464;-79
2022/04/22 06:19:43;;;;;;;11.30;7.27;;;9.40;94.30;;;;;;5097406;28;20527;-79
2022/04/22 06:22:11;;;;;;;12.00;7.30;;;9.60;94.20;;;;;;5097118;28;20995;-79
2022/04/22 06:24:42;;;;;;;12.80;7.87;;;9.90;94.20;;;;;;5095532;28;20444;-79
2022/04/22 06:27:10;;;;;;;11.70;7.67;;;10.10;93.60;;;;;;5096725;28;20482;-79
2022/04/22 06:29:39;;;;;;;11.20;6.87;;;10.30;93.40;;;;;;5096467;28;20456;-79
2022/04/22 06:32:08;;;;;;;13.30;7.23;;;10.50;93.40;;;;;;5098314;28;20962;-79
2022/04/22 06:34:37;;;;;;;10.50;6.80;;;10.70;93.40;;;;;;5097056;28;20986;-80
2022/04/22 06:37:06;;;;;;;11.23;6.90;;;10.90;93.40;;;;;;5096578;28;21017;-79
2022/04/22 06:45:46;;;;;;;11.20;5.73;;;11.10;93.30;;;;;;5096585;28;20543;-79
2022/04/22 06:47:55;;;;;;;9.63;6.07;;;11.70;92.90;;;;;;5090460;28;20545;-80
2022/04/22 06:50:24;;;;;;;9.70;6.20;;;11.90;92.70;;;;;;5092255;28;20810;-79
2022/04/22 06:52:52;;;;;;;9.43;5.63;;;11.90;92.50;;;;;;5098869;28;20448;-80
2022/04/22 06:55:22;;;;;;;11.73;6.70;;;12.10;92.50;;;;;;5099849;28;20982;-79
2022/04/22 06:57:52;;;;;;;9.50;6.00;;;12.20;92.50;;;;;;5134016;27;20550;-79
2022/04/22 07:00:20;;;;;;;10.90;5.40;;;12.40;92.50;;;;;;5128570;27;20517;-79
2022/04/22 07:02:49;;;;;;;10.00;6.07;;;12.50;92.40;;;;;;5099033;28;20452;-79
2022/04/22 07:05:18;;;;;;;11.37;6.27;;;12.70;92.20;;;;;;5100404;28;20446;-79
2022/04/22 07:07:47;;;;;;;10.63;5.80;;;12.80;92.10;;;;;;5099301;28;20472;-79
2022/04/22 07:10:16;;;;;;;9.97;5.70;;;12.90;92.00;;;;;;5101528;28;20448;-79
2022/04/22 07:12:45;;;;;;;9.33;5.50;;;13.00;92.00;;;;;;5132877;27;20531;-79
2022/04/22 07:15:15;;;;;;;15.10;6.30;;;13.20;92.00;;;;;;5095573;28;20507;-79
2022/04/22 07:17:43;;;;;;;10.60;4.97;;;13.30;91.90;;;;;;5078082;28;20465;-79
2022/04/22 07:20:14;;;;;;;10.50;5.30;;;13.50;91.90;;;;;;5078238;28;20543;-80
2022/04/22 07:22:44;;;;;;;11.97;6.20;;;13.60;91.70;;;;;;5078472;28;20460;-79
2022/04/22 07:25:14;;;;;;;10.17;5.57;;;13.70;91.50;;;;;;5081238;28;20433;-79
2022/04/22 07:27:45;;;;;;;9.20;5.40;;;13.80;91.30;;;;;;5085369;28;20527;-79
2022/04/22 07:30:16;;;;;;;9.37;5.23;;;13.80;91.20;;;;;;5081459;28;20476;-80
2022/04/22 07:32:48;;;;;;;12.60;5.80;;;13.90;91.10;;;;;;5080689;28;20473;-79
2022/04/22 07:35:18;;;;;;;10.67;5.90;;;14.00;91.10;;;;;;5094088;28;20522;-79
2022/04/22 07:37:47;;;;;;;8.90;5.87;;;14.10;90.80;;;;;;5082326;28;20469;-79
2022/04/22 07:40:19;;;;;;;10.70;5.57;;;14.10;90.80;;;;;;5083156;28;20455;-79
2022/04/22 07:48:40;;;;;;;11.20;5.40;;;14.40;90.70;;;;;;5096332;28;20476;-80
2022/04/22 07:51:09;;;;;;;11.93;5.80;;;14.50;90.50;;;;;;5084971;28;20431;-78
2022/04/22 07:53:37;;;;;;;10.90;5.70;;;14.60;90.40;;;;;;5121941;28;20434;-79
2022/04/22 07:56:06;;;;;;;10.60;6.10;;;14.60;90.60;;;;;;5085616;28;20542;-79
2022/04/22 07:58:34;;;;;;;12.00;7.23;;;14.70;90.20;;;;;;5081703;28;20872;-79
2022/04/22 08:01:04;;;;;;;12.50;5.43;;;14.80;90.20;;;;;;5085553;28;20926;-79
2022/04/22 08:03:32;;;;;;;11.10;6.00;;;14.90;90.20;;;;;;5111781;28;20479;-78
2022/04/22 08:06:01;;;;;;;9.70;5.57;;;15.10;90.10;;;;;;5078787;28;20432;-79
2022/04/22 08:08:30;;;;;;;11.73;6.40;;;15.20;90.00;;;;;;5078550;28;20443;-79
2022/04/22 08:10:58;;;;;;;9.47;5.87;;;15.30;90.00;;;;;;5080253;28;20444;-79
2022/04/22 08:13:27;;;;;;;8.90;5.97;;;15.40;89.70;;;;;;5110654;28;20431;-79
2022/04/22 08:15:55;;;;;;;12.07;5.80;;;15.50;89.60;;;;;;5089508;28;20450;-79
2022/04/22 08:18:25;;;;;;;12.13;6.50;;;15.50;89.20;;;;;;5089167;28;20464;-79
2022/04/22 08:20:54;;;;;;;9.53;6.17;;;15.60;89.30;;;;;;5110660;28;20427;-79
2022/04/22 08:23:22;;;;;;;10.63;6.50;;;15.60;88.90;;;;;;5109838;28;20466;-79
2022/04/22 08:25:51;;;;;;;11.43;6.53;;;15.70;88.70;;;;;;5076731;28;20428;-79
2022/04/22 08:28:19;;;;;;;9.83;6.60;;;15.80;88.60;;;;;;5112379;28;20461;-79
2022/04/22 08:30:47;;;;;;;10.57;6.37;;;15.80;88.50;;;;;;5091288;28;20507;-79
2022/04/22 08:33:16;;;;;;;11.83;6.33;;;15.80;88.10;;;;;;5109601;28;20783;-79
2022/04/22 08:35:45;;;;;;;11.83;7.00;;;15.90;88.20;;;;;;5077127;28;20572;-79
2022/04/22 08:38:14;;;;;;;13.17;7.50;;;15.90;87.90;;;;;;5075966;28;20469;-79
2022/04/22 08:40:43;;;;;;;12.03;7.77;;;16.00;87.60;;;;;;5075770;28;20445;-79
2022/04/22 08:43:13;;;;;;;10.50;6.90;;;16.00;87.60;;;;;;5076002;28;20532;-79
2022/04/22 08:45:41;;;;;;;11.67;6.83;;;16.10;87.60;;;;;;5081177;28;20453;-79
2022/04/22 08:50:57;;;;;;;11.40;6.47;;;16.20;87.30;;;;;;5089000;28;20451;-79
2022/04/22 08:53:30;;;;;;;10.80;7.00;;;16.30;87.20;;;;;;5097207;28;20547;-79
2022/04/22 08:56:02;;;;;;;10.70;6.53;;;16.30;87.30;;;;;;5096043;28;20809;-79
2022/04/22 08:58:30;;;;;;;11.10;6.37;;;16.40;87.40;;;;;;5095487;28;20797;-79
2022/04/22 09:00:59;;;;;;;11.93;6.90;;;16.50;87.00;;;;;;5129703;27;20452;-79
2022/04/22 09:03:28;;;;;;;15.60;6.53;;;16.60;86.90;;;;;;5096308;28;20494;-79
2022/04/22 09:05:57;;;;;;;9.83;6.33;;;16.60;86.40;;;;;;5076252;28;20533;-79
2022/04/22 09:08:28;;;;;;;11.20;6.47;;;16.60;85.80;;;;;;5075583;28;20510;-79
2022/04/22 09:10:58;;;;;;;12.57;7.23;;;16.60;85.50;;;;;;5074958;28;20991;-79
2022/04/22 09:13:27;;;;;;;10.30;6.60;;;16.60;85.00;;;;;;5077996;28;20458;-79
2022/04/22 09:15:55;;;;;;;11.33;6.53;;;16.60;84.70;;;;;;5093530;28;20994;-79
2022/04/22 09:18:39;;;;;;;13.07;7.43;;;16.60;84.70;;;;;;5094545;28;20442;-79
2022/04/22 09:21:16;;;;;;;11.50;7.10;;;16.60;84.80;;;;;;5094479;28;20444;-79
2022/04/22 09:23:45;;;;;;;11.47;6.90;;;16.60;84.50;;;;;;5094305;28;20447;-79
2022/04/22 09:26:22;;;;;;;15.23;7.87;;;16.60;84.50;;;;;;5096340;28;20452;-78
2022/04/22 09:28:57;;;;;;;12.23;7.20;;;16.70;84.40;;;;;;5094329;28;20884;-79
2022/04/22 09:31:27;;;;;;;9.63;6.90;;;16.70;84.10;;;;;;5077686;28;20944;-78
2022/04/22 09:33:57;;;;;;;10.30;7.87;;;16.70;83.80;;;;;;5076491;28;20449;-79
2022/04/22 09:44:56;;;;;;;11.70;7.23;;;16.60;83.00;;;;;;5076223;28;20463;-79
2022/04/22 09:47:27;;;;;;;10.20;7.37;;;16.50;83.00;;;;;;5075894;28;20875;-79
2022/04/22 09:49:56;;;;;;;11.07;7.47;;;16.50;82.80;;;;;;5080251;28;20456;-79
2022/04/22 09:52:30;;;;;;;12.03;7.20;;;16.50;82.90;;;;;;5093801;28;20434;-80
2022/04/22 09:55:00;;;;;;;10.47;7.00;;;16.50;83.10;;;;;;5094360;28;20441;-79
2022/04/22 09:57:52;;;;;;;11.80;6.70;;;16.60;83.10;;;;;;5091243;28;20492;-79
2022/04/22 10:00:21;;;;;;;12.00;6.60;;;16.60;82.60;;;;;;5074359;28;20484;-79
2022/04/22 10:02:51;;;;;;;9.77;6.13;;;16.60;82.60;;;;;;5074167;28;20473;-79
2022/04/22 10:05:20;;;;;;;9.27;6.37;;;16.60;82.30;;;;;;5074280;28;20495;-78
2022/04/22 10:07:52;;;;;;;8.20;5.43;;;16.70;82.00;;;;;;5074255;28;20436;-79
2022/04/22 10:10:24;;;;;;;17.03;7.07;;;16.70;82.20;;;;;;5074195;28;20468;-78
2022/04/22 10:12:57;;;;;;;9.07;6.50;;;16.80;82.40;;;;;;5107938;28;20778;-79
2022/04/22 10:15:29;;;;;;;9.57;5.87;;;16.80;82.10;;;;;;5085707;28;20490;-79
2022/04/22 10:17:58;;;;;;;12.43;6.00;;;16.90;81.90;;;;;;5075014;28;20481;-78
2022/04/22 10:20:27;;;;;;;13.23;6.30;;;17.00;82.10;;;;;;5074997;28;20447;-78
2022/04/22 10:22:58;;;;;;;11.30;6.63;;;17.10;81.90;;;;;;5079048;28;20502;-78
2022/04/22 10:25:30;;;;;;;9.47;5.87;;;17.10;81.50;;;;;;5078469;28;20400;-78
2022/04/22 10:28:01;;;;;;;10.47;6.20;;;17.20;81.70;;;;;;5110845;28;20487;-78
2022/04/22 10:30:30;;;;;;;8.20;5.93;;;17.20;81.50;;;;;;5078934;28;20508;-78
2022/04/22 10:32:59;;;;;;;9.60;6.67;;;17.30;81.40;;;;;;5111812;28;20449;-78
2022/04/22 10:35:28;;;;;;;9.57;5.90;;;17.30;81.50;;;;;;5078561;28;20429;-79
2022/04/22 10:38:00;;;;;;;10.40;6.77;;;17.40;81.60;;;;;;5077883;28;20579;-78
2022/04/22 10:40:28;;;;;;;10.30;6.80;;;17.40;81.20;;;;;;5110967;28;20451;-78
2022/04/22 10:42:58;;;;;;;10.23;6.10;;;17.40;81.00;;;;;;5078998;28;21034;-78
2022/04/22 10:48:21;;;;;;;10.13;6.80;;;17.50;81.10;;;;;;5117989;28;20864;-79
2022/04/22 10:50:58;;;;;;;9.60;6.00;;;17.70;81.10;;;;;;5098647;28;20450;-79
2022/04/22 10:53:29;;;;;;;10.13;6.23;;;17.70;81.00;;;;;;5099104;28;20459;-79
2022/04/22 10:56:32;;;;;;;10.00;6.60;;;17.80;80.90;;;;;;5095136;28;20532;-79
2022/04/22 10:59:28;;;;;;;10.37;6.13;;;17.80;80.50;;;;;;5090958;28;21028;-79
2022/04/22 11:01:56;;;;;;;13.10;6.47;;;17.80;80.00;;;;;;5068344;28;20485;-79
2022/04/22 11:04:28;;;;;;;10.33;6.70;;;17.80;80.20;;;;;;5077236;28;20453;-78
2022/04/22 11:06:57;;;;;;;10.03;6.60;;;17.70;80.10;;;;;;5110408;28;20448;-78
2022/04/22 11:09:28;;;;;;;10.17;6.57;;;17.60;80.30;;;;;;5088129;28;20509;-79
2022/04/22 11:11:58;;;;;;;9.03;5.50;;;17.70;80.40;;;;;;5097290;28;20493;-79
2022/04/22 11:14:27;;;;;;;9.90;6.20;;;17.70;80.20;;;;;;5096958;28;20543;-79
2022/04/22 11:17:16;;;;;;;10.20;5.90;;;17.70;80.00;;;;;;5098109;28;20514;-78
2022/04/22 11:19:58;;;;;;;11.07;6.67;;;17.80;80.00;;;;;;5096630;28;20487;-79
2022/04/22 11:22:56;;;;;;;12.43;7.33;;;17.80;80.00;;;;;;5097352;28;20446;-79
2022/04/22 11:25:28;;;;;;;9.57;6.57;;;17.80;80.20;;;;;;5097723;28;20452;-79
2022/04/22 11:27:57;;;;;;;10.30;6.07;;;17.90;80.20;;;;;;5096671;28;20543;-79
2022/04/22 11:30:27;;;;;;;11.30;5.87;;;17.90;80.00;;;;;;5096902;28;20482;-79
2022/04/22 11:33:17;;;;;;;9.97;5.90;;;17.90;80.10;;;;;;5096193;28;20501;-79
2022/04/22 11:35:49;;;;;;;9.93;6.20;;;17.90;79.70;;;;;;5084246;28;20459;-79
2022/04/22 11:38:19;;;;;;;8.43;6.00;;;17.80;79.70;;;;;;5076347;28;20575;-78
2022/04/22 11:40:50;;;;;;;11.67;5.87;;;17.70;79.70;;;;;;5130024;27;20452;-79
2022/04/22 11:43:20;;;;;;;10.23;7.33;;;17.80;79.50;;;;;;5096520;28;20935;-79
2022/04/22 11:45:50;;;;;;;11.30;5.50;;;17.80;79.40;;;;;;5096482;28;20839;-79
2022/04/22 11:48:20;;;;;;;9.70;6.07;;;17.90;79.50;;;;;;5096474;28;20887;-79
2022/04/22 11:50:49;;;;;;;12.20;6.23;;;18.00;79.50;;;;;;5115203;27;20481;-79
2022/04/22 11:53:19;;;;;;;9.27;5.97;;;18.10;79.60;;;;;;5105320;28;20526;-79
2022/04/22 11:55:49;;;;;;;9.70;5.70;;;18.20;79.50;;;;;;5076318;28;20488;-79
2022/04/22 11:58:20;;;;;;;7.80;5.67;;;18.30;79.30;;;;;;5076152;28;20517;-79
2022/04/22 12:06:24;;;;;;;8.37;5.10;;;18.50;78.80;;;;;;5075321;28;20867;-79
2022/04/22 12:08:53;;;;;;;8.50;5.50;;;18.50;78.70;;;;;;5075712;28;20465;-79
2022/04/22 12:11:23;;;;;;;11.20;6.00;;;18.40;79.10;;;;;;5076957;28;20460;-78
2022/04/22 12:13:53;;;;;;;10.70;5.43;;;18.30;78.50;;;;;;5128682;27;20468;-79
2022/04/22 12:16:23;;;;;;;10.37;6.20;;;18.30;78.60;;;;;;5087244;28;21025;-79
2022/04/22 12:18:53;;;;;;;10.17;5.20;;;18.30;78.60;;;;;;5109143;28;20469;-79
2022/04/22 12:21:22;;;;;;;11.63;5.97;;;18.40;78.40;;;;;;5129327;27;20479;-79
2022/04/22 12:23:53;;;;;;;14.03;5.77;;;18.40;78.20;;;;;;5095803;28;20880;-79
2022/04/22 12:26:23;;;;;;;7.03;4.20;;;18.50;78.10;;;;;;5089912;28;20535;-79
2022/04/22 12:29:00;;;;;;;9.60;4.80;;;18.60;78.30;;;;;;5075232;28;20493;-79
2022/04/22 12:31:29;;;;;;;8.70;5.00;;;18.60;77.50;;;;;;5109299;28;20448;-79
2022/04/22 12:34:00;;;;;;;11.13;5.50;;;18.60;77.30;;;;;;5085329;28;20487;-79
2022/04/22 12:36:29;;;;;;;10.07;4.80;;;18.60;77.10;;;;;;5092570;28;20503;-79
2022/04/22 12:38:57;;;;;;;11.53;5.23;;;18.50;76.50;;;;;;5108585;28;20832;-79
2022/04/22 12:41:27;;;;;;;9.60;5.47;;;18.50;76.70;;;;;;5109411;28;20548;-79
2022/04/22 12:43:56;;;;;;;10.10;5.70;;;18.50;76.60;;;;;;5108140;28;20443;-79
2022/04/22 12:52:23;;;;;;;10.80;5.00;;;18.60;76.40;;;;;;5020954;28;20450;-79
2022/04/22 12:54:51;;;;;;;9.00;5.07;;;18.60;76.30;;;;;;5036419;28;20439;-79
2022/04/22 12:57:23;;;;;;;9.17;4.90;;;18.50;76.10;;;;;;5051508;28;20496;-79
2022/04/22 12:59:54;;;;;;;12.73;5.20;;;18.50;76.00;;;;;;5077877;28;20507;-79
2022/04/22 13:02:27;;;;;;;11.93;5.13;;;18.50;76.00;;;;;;5077786;28;20475;-80
2022/04/22 13:04:58;;;;;;;9.97;5.63;;;18.50;76.00;;;;;;5083640;28;20444;-79
2022/04/22 13:07:39;;;;;;;9.67;5.80;;;18.50;76.00;;;;;;5096293;28;20510;-79
2022/04/22 13:10:07;;;;;;;10.40;6.90;;;18.50;75.90;;;;;;5094681;28;20523;-78
2022/04/22 13:12:39;;;;;;;10.20;7.10;;;18.50;76.00;;;;;;5077174;28;20446;-79
2022/04/22 13:15:08;;;;;;;11.00;6.13;;;18.40;76.00;;;;;;5110308;28;20891;-79
2022/04/22 13:17:40;;;;;;;8.90;6.10;;;18.40;76.10;;;;;;5110676;28;20483;-79
2022/04/22 13:20:12;;;;;;;9.17;5.87;;;18.40;76.10;;;;;;5077612;28;20422;-79
2022/04/22 13:22:41;;;;;;;9.50;5.63;;;18.30;76.10;;;;;;5076863;28;20445;-79
2022/04/22 13:25:12;;;;;;;9.73;5.40;;;18.20;76.00;;;;;;5077739;28;20456;-79
2022/04/22 13:27:43;;;;;;;7.80;4.90;;;18.20;76.10;;;;;;5094838;28;20468;-78
2022/04/22 13:30:12;;;;;;;8.80;4.70;;;18.20;76.20;;;;;;5083233;28;20449;-79
2022/04/22 13:32:41;;;;;;;10.43;5.03;;;18.20;76.10;;;;;;5109331;28;20452;-79
2022/04/22 13:35:10;;;;;;;8.10;4.63;;;18.10;76.10;;;;;;5108394;28;20473;-78
2022/04/22 13:37:39;;;;;;;8.60;4.20;;;18.20;76.20;;;;;;5108291;28;20477;-79
2022/04/22 13:40:08;;;;;;;7.43;3.87;;;18.20;76.20;;;;;;5108157;28;20476;-79
2022/04/22 13:42:36;;;;;;;6.40;3.57;;;18.20;76.10;;;;;;5074357;28;20549;-79
2022/04/22 13:53:23;;;;;;;6.50;3.60;;;18.20;75.50;;;;;;5093707;28;20543;-78
2022/04/22 13:55:52;;;;;;;6.23;3.40;;;18.10;75.20;;;;;;5093597;28;20474;-78
2022/04/22 13:58:20;;;;;;;8.73;3.43;;;18.10;75.10;;;;;;5128663;28;21021;-78
2022/04/22 14:00:49;;;;;;;6.73;3.63;;;18.10;74.70;;;;;;5094147;28;20448;-78
2022/04/22 14:03:18;;;;;;;7.70;3.63;;;18.10;74.90;;;;;;5093685;28;20448;-78
2022/04/22 14:05:46;;;;;;;9.73;3.63;;;18.10;74.90;;;;;;5094366;28;20451;-78
2022/04/22 14:08:14;;;;;;;10.93;4.10;;;18.20;75.20;;;;;;5095141;28;20468;-79